createdAt,value
2023-01-20T00:01:24.274Z,9.10
2023-01-20T00:03:54.466Z,8.13
2023-01-20T00:06:23.466Z,8.83
2023-01-20T00:08:52.337Z,9.50
2023-01-20T00:11:20.481Z,8.67
2023-01-20T00:13:48.557Z,9.10
2023-01-20T00:16:16.213Z,9.23
2023-01-20T00:18:43.862Z,10.50
2023-01-20T00:21:14.165Z,9.80
2023-01-20T00:23:41.767Z,9.53
2023-01-20T00:26:16.244Z,9.57
2023-01-20T00:28:44.691Z,9.83
2023-01-20T00:31:20.724Z,9.30
2023-01-20T00:33:50.307Z,9.60
2023-01-20T00:36:19.790Z,9.60
2023-01-20T00:38:47.609Z,9.40
2023-01-20T00:41:16.119Z,9.43
2023-01-20T00:43:44.296Z,9.03
2023-01-20T00:46:12.270Z,9.30
2023-01-20T00:48:40.577Z,9.50
2023-01-20T00:51:09.343Z,9.50
2023-01-20T00:53:37.312Z,8.97
2023-01-20T00:56:05.519Z,8.63
2023-01-20T00:58:33.252Z,9.53
2023-01-20T01:01:01.204Z,10.03
2023-01-20T01:03:29.535Z,9.40
2023-01-20T01:06:13.587Z,10.03
2023-01-20T01:08:42.074Z,10.50
2023-01-20T01:11:11.071Z,10.30
2023-01-20T01:13:39.017Z,10.10
2023-01-20T01:16:12.193Z,10.07
2023-01-20T01:18:40.814Z,9.83
2023-01-20T01:21:14.663Z,9.73
2023-01-20T01:23:43.530Z,10.00
2023-01-20T01:26:11.298Z,11.23
2023-01-20T01:28:39.049Z,11.23
2023-01-20T01:31:08.614Z,10.47
2023-01-20T01:33:36.728Z,12.00
2023-01-20T01:36:05.210Z,11.10
2023-01-20T01:38:32.984Z,9.97
2023-01-20T01:41:01.070Z,9.93
2023-01-20T01:43:33.608Z,9.37
2023-01-20T01:46:02.612Z,9.37
2023-01-20T01:48:37.668Z,10.10
2023-01-20T01:51:21.458Z,9.83
2023-01-20T01:53:59.639Z,10.03
2023-01-20T01:56:30.358Z,9.60
2023-01-20T01:59:01.284Z,10.50
2023-01-20T02:01:30.708Z,9.90
2023-01-20T02:04:21.763Z,10.10
2023-01-20T02:06:54.270Z,11.17
2023-01-20T02:09:23.482Z,11.73
2023-01-20T02:11:55.502Z,11.13
2023-01-20T02:14:28.267Z,11.87
2023-01-20T02:17:04.764Z,12.20
2023-01-20T02:20:06.533Z,11.70
2023-01-20T02:22:50.254Z,12.20
2023-01-20T02:25:36.868Z,12.47
2023-01-20T02:28:27.456Z,12.07
2023-01-20T02:31:16.292Z,12.33
2023-01-20T02:33:53.316Z,11.90
2023-01-20T02:36:47.368Z,12.53
2023-01-20T02:39:39.864Z,12.53
2023-01-20T02:42:32.120Z,12.03
2023-01-20T02:45:11.093Z,9.30
2023-01-20T02:47:52.000Z,8.83
2023-01-20T02:50:39.140Z,8.83
2023-01-20T02:53:08.512Z,8.50
2023-01-20T02:55:46.212Z,8.73
2023-01-20T02:58:20.473Z,11.50
2023-01-20T03:00:53.803Z,10.27
2023-01-20T03:03:29.778Z,11.90
2023-01-20T03:05:59.723Z,11.10
2023-01-20T03:08:31.523Z,10.93
2023-01-20T03:11:04.616Z,11.60
2023-01-20T03:13:41.246Z,10.53
2023-01-20T03:16:21.427Z,11.03
2023-01-20T03:18:50.493Z,11.60
2023-01-20T03:21:19.058Z,12.70
2023-01-20T03:23:50.318Z,12.13
2023-01-20T03:26:20.079Z,12.50
2023-01-20T03:28:48.874Z,12.73
2023-01-20T03:31:30.190Z,12.00
2023-01-20T03:34:00.696Z,12.13
2023-01-20T03:36:30.092Z,11.30
2023-01-20T03:38:59.370Z,12.07
2023-01-20T03:42:16.081Z,11.33
2023-01-20T03:45:08.409Z,10.73
2023-01-20T03:47:56.743Z,10.30
2023-01-20T03:50:49.376Z,11.00
2023-01-20T03:53:45.783Z,11.53
2023-01-20T03:56:31.787Z,11.60
2023-01-20T03:59:02.691Z,12.27
2023-01-20T04:01:38.511Z,11.40
2023-01-20T04:04:11.192Z,11.77
2023-01-20T04:06:41.522Z,11.23
2023-01-20T04:09:13.201Z,11.50
2023-01-20T04:11:40.980Z,11.37
2023-01-20T04:14:09.805Z,11.20
2023-01-20T04:16:37.955Z,10.93
2023-01-20T04:19:05.669Z,12.33
2023-01-20T04:21:40.763Z,11.63
2023-01-20T04:24:24.363Z,11.30
2023-01-20T04:26:51.981Z,11.00
2023-01-20T04:29:19.677Z,11.37
2023-01-20T04:31:50.190Z,11.43
2023-01-20T04:34:17.904Z,12.00
2023-01-20T04:36:45.546Z,12.00
2023-01-20T04:39:16.166Z,12.40
2023-01-20T04:41:43.776Z,11.60
2023-01-20T04:44:11.350Z,12.23
2023-01-20T04:46:38.995Z,11.97
2023-01-20T04:49:06.630Z,12.43
2023-01-20T04:51:34.200Z,11.53
2023-01-20T04:54:01.846Z,12.37
2023-01-20T04:56:29.459Z,11.77
2023-01-20T04:58:57.154Z,10.20
2023-01-20T05:01:24.996Z,12.97
2023-01-20T05:03:52.636Z,13.13
2023-01-20T05:06:20.332Z,13.23
2023-01-20T05:08:48.020Z,12.47
2023-01-20T05:11:15.614Z,11.20
2023-01-20T05:13:43.204Z,11.37
2023-01-20T05:16:11.051Z,12.47
2023-01-20T05:18:38.927Z,11.90
2023-01-20T05:21:08.758Z,12.07
2023-01-20T05:23:36.454Z,11.97
2023-01-20T05:26:04.254Z,13.23
2023-01-20T05:28:31.953Z,13.33
2023-01-20T05:30:59.619Z,13.93
2023-01-20T05:33:27.212Z,13.80
2023-01-20T05:35:56.079Z,13.83
2023-01-20T05:38:23.725Z,12.50
2023-01-20T05:40:58.481Z,12.77
2023-01-20T05:43:26.234Z,12.53
2023-01-20T05:45:55.259Z,12.13
2023-01-20T05:48:23.133Z,12.73
2023-01-20T05:50:50.840Z,13.20
2023-01-20T05:53:19.622Z,12.10
2023-01-20T05:55:47.715Z,13.07
2023-01-20T05:58:16.945Z,12.03
2023-01-20T06:00:47.115Z,12.57
2023-01-20T06:03:14.757Z,12.57
2023-01-20T06:05:42.418Z,13.00
2023-01-20T06:08:10.175Z,13.17
2023-01-20T06:10:37.890Z,13.00
2023-01-20T06:13:05.817Z,12.93
2023-01-20T06:15:33.523Z,13.13
2023-01-20T06:18:01.561Z,12.23
2023-01-20T06:20:30.195Z,11.93
2023-01-20T06:22:57.824Z,10.50
2023-01-20T06:25:25.795Z,11.40
2023-01-20T06:27:53.378Z,10.87
2023-01-20T06:30:21.023Z,10.00
2023-01-20T06:32:48.831Z,10.20
2023-01-20T06:35:17.132Z,11.00
2023-01-20T06:37:44.930Z,10.60
2023-01-20T06:40:16.452Z,9.67
2023-01-20T06:42:44.153Z,10.27
2023-01-20T06:45:12.019Z,9.30
2023-01-20T06:47:39.793Z,13.90
2023-01-20T06:50:08.299Z,13.17
2023-01-20T06:52:35.899Z,12.37
2023-01-20T06:55:03.687Z,15.10
2023-01-20T06:57:31.307Z,14.33
2023-01-20T06:59:59.346Z,14.73
2023-01-20T07:02:27.060Z,14.03
2023-01-20T07:04:54.916Z,14.93
2023-01-20T07:07:22.597Z,14.70
2023-01-20T07:09:53.668Z,12.73
2023-01-20T07:12:21.354Z,12.80
2023-01-20T07:14:48.978Z,11.97
2023-01-20T07:17:16.703Z,12.43
2023-01-20T07:19:44.365Z,13.03
2023-01-20T07:22:12.014Z,12.47
2023-01-20T07:24:39.643Z,12.37
2023-01-20T07:27:07.241Z,13.03
2023-01-20T07:29:39.898Z,14.20
2023-01-20T07:32:10.252Z,12.87
2023-01-20T07:34:37.873Z,13.53
2023-01-20T07:37:05.510Z,13.57
2023-01-20T07:39:36.305Z,13.87
2023-01-20T07:42:04.076Z,13.23
2023-01-20T07:44:32.752Z,13.30
2023-01-20T07:47:00.388Z,13.00
2023-01-20T07:49:29.186Z,13.63
2023-01-20T07:51:57.551Z,15.23
2023-01-20T07:54:25.159Z,14.60
2023-01-20T07:56:52.786Z,14.47
2023-01-20T07:59:20.411Z,13.90
2023-01-20T08:01:48.145Z,15.57
2023-01-20T08:04:15.828Z,13.93
2023-01-20T08:06:43.456Z,13.03
2023-01-20T08:09:12.319Z,12.27
2023-01-20T08:11:40.224Z,13.10
2023-01-20T08:14:07.950Z,12.50
2023-01-20T08:16:35.712Z,11.20
2023-01-20T08:19:03.365Z,12.50
2023-01-20T08:21:32.604Z,11.83
2023-01-20T08:24:02.459Z,10.73
2023-01-20T08:26:31.319Z,11.40
2023-01-20T08:29:04.183Z,11.47
2023-01-20T08:31:32.236Z,11.17
2023-01-20T08:33:59.933Z,10.27
2023-01-20T08:36:30.669Z,10.00
2023-01-20T08:39:02.646Z,10.40
2023-01-20T08:41:33.360Z,10.47
2023-01-20T08:44:02.387Z,11.67
2023-01-20T08:46:31.058Z,11.10
2023-01-20T08:48:59.034Z,12.33
2023-01-20T08:51:29.955Z,11.73
2023-01-20T08:53:58.230Z,11.63
2023-01-20T08:56:26.254Z,10.33
2023-01-20T08:58:54.443Z,10.30
2023-01-20T09:01:25.615Z,10.90
2023-01-20T09:04:05.039Z,10.73
2023-01-20T09:06:53.875Z,11.90
2023-01-20T09:09:22.945Z,12.07
2023-01-20T09:11:51.355Z,13.10
2023-01-20T09:14:20.380Z,13.60
2023-01-20T09:16:48.602Z,13.30
2023-01-20T09:19:16.443Z,13.83
2023-01-20T09:21:44.500Z,12.47
2023-01-20T09:24:12.319Z,12.53
2023-01-20T09:26:40.010Z,11.73
2023-01-20T09:29:11.404Z,11.93
2023-01-20T09:31:44.330Z,11.43
2023-01-20T09:34:19.406Z,12.17
2023-01-20T09:36:56.200Z,11.13
2023-01-20T09:39:42.771Z,12.47
2023-01-20T09:43:17.370Z,12.13
2023-01-20T09:46:03.374Z,12.13
2023-01-20T09:49:27.689Z,12.00
2023-01-20T09:52:22.588Z,11.97
2023-01-20T09:55:00.335Z,12.67
2023-01-20T09:57:33.467Z,11.90
2023-01-20T10:00:08.610Z,11.60
2023-01-20T10:02:36.851Z,11.37
2023-01-20T10:05:13.519Z,11.73
2023-01-20T10:07:51.225Z,11.47
2023-01-20T10:10:29.300Z,11.40
2023-01-20T10:13:21.493Z,10.40
2023-01-20T10:15:57.197Z,10.43
2023-01-20T10:18:40.494Z,8.87
2023-01-20T10:21:25.523Z,9.37
2023-01-20T10:24:05.825Z,9.53
2023-01-20T10:26:58.638Z,9.70
2023-01-20T10:29:36.844Z,10.00
2023-01-20T10:32:13.412Z,10.00
2023-01-20T10:34:46.365Z,8.77
2023-01-20T10:37:16.971Z,9.13
2023-01-20T10:39:53.733Z,9.00
2023-01-20T10:42:21.684Z,9.47
2023-01-20T10:44:51.392Z,8.70
2023-01-20T10:47:41.302Z,8.00
2023-01-20T10:50:30.209Z,8.03
2023-01-20T10:53:16.496Z,7.43
2023-01-20T10:56:21.161Z,5.63
2023-01-20T10:58:48.844Z,6.13
2023-01-20T11:01:21.776Z,6.87
2023-01-20T11:03:52.017Z,6.03
2023-01-20T11:06:26.745Z,6.63
2023-01-20T11:08:56.540Z,6.80
2023-01-20T11:11:25.778Z,6.27
2023-01-20T11:13:54.055Z,6.10
2023-01-20T11:16:28.864Z,6.00
2023-01-20T11:19:02.263Z,5.40
2023-01-20T11:21:36.688Z,5.73
2023-01-20T11:24:35.151Z,5.97
2023-01-20T11:27:22.244Z,6.37
2023-01-20T11:33:33.049Z,5.60
2023-01-20T11:36:13.125Z,5.57
2023-01-20T11:39:17.583Z,4.93
2023-01-20T11:41:45.267Z,5.00
2023-01-20T11:44:20.360Z,5.77
2023-01-20T11:46:48.010Z,5.73
2023-01-20T11:49:17.468Z,5.10
2023-01-20T11:51:56.284Z,4.43
2023-01-20T11:54:29.670Z,3.90
2023-01-20T11:57:04.662Z,3.87
2023-01-20T11:59:35.417Z,4.20
2023-01-20T12:02:09.041Z,4.60
2023-01-20T12:05:18.937Z,3.37
2023-01-20T12:07:49.571Z,3.73
2023-01-20T12:10:21.822Z,6.03
2023-01-20T12:13:01.636Z,3.53
2023-01-20T12:15:35.191Z,3.40
2023-01-20T12:18:10.471Z,3.00
2023-01-20T12:20:56.109Z,3.07
2023-01-20T12:23:32.624Z,3.23
2023-01-20T12:26:06.001Z,3.73
2023-01-20T12:28:51.579Z,3.40
2023-01-20T12:31:21.063Z,3.00
2023-01-20T12:33:51.756Z,4.17
2023-01-20T12:36:31.220Z,3.27
2023-01-20T12:39:17.798Z,2.53
2023-01-20T12:41:58.337Z,2.70
2023-01-20T12:44:37.042Z,2.73
2023-01-20T12:47:26.932Z,3.83
2023-01-20T12:50:16.032Z,3.10
2023-01-20T12:52:58.951Z,3.23
2023-01-20T12:56:05.209Z,3.37
2023-01-20T12:58:59.855Z,3.43
2023-01-20T13:01:42.738Z,3.47
2023-01-20T13:04:38.149Z,3.50
2023-01-20T13:07:14.513Z,3.27
2023-01-20T13:10:11.545Z,2.73
2023-01-20T13:12:51.719Z,3.17
2023-01-20T13:15:41.519Z,3.10
2023-01-20T13:18:52.651Z,3.00
2023-01-20T13:21:21.341Z,3.10
2023-01-20T13:23:50.683Z,3.87
2023-01-20T13:26:18.942Z,2.83
2023-01-20T13:28:55.053Z,2.87
2023-01-20T13:31:36.295Z,3.77
2023-01-20T13:34:22.263Z,3.60
2023-01-20T13:37:07.177Z,3.60
2023-01-20T13:39:46.302Z,3.77
2023-01-20T13:42:38.572Z,3.70
2023-01-20T13:45:11.972Z,3.93
2023-01-20T13:47:57.585Z,4.17
2023-01-20T13:50:35.039Z,4.10
2023-01-20T13:53:10.367Z,4.23
2023-01-20T13:55:40.814Z,4.33
2023-01-20T13:58:20.070Z,4.00
2023-01-20T14:00:53.371Z,4.27
2023-01-20T14:03:31.535Z,4.77
2023-01-20T14:06:18.102Z,5.30
2023-01-20T14:08:50.620Z,4.53
2023-01-20T14:11:21.963Z,5.57
2023-01-20T14:14:07.328Z,6.03
2023-01-20T14:16:35.093Z,5.47
2023-01-20T14:19:27.429Z,6.60
2023-01-20T14:22:02.751Z,8.13
2023-01-20T14:24:36.171Z,8.87
2023-01-20T14:27:32.004Z,8.97
2023-01-20T14:30:14.649Z,10.10
2023-01-20T14:32:42.633Z,9.90
2023-01-20T14:35:14.819Z,11.30
2023-01-20T14:37:43.398Z,11.53
2023-01-20T14:40:23.494Z,11.53
2023-01-20T14:43:14.498Z,11.90
2023-01-20T14:45:46.621Z,12.07
2023-01-20T14:48:28.303Z,12.27
2023-01-20T14:51:02.634Z,12.57
2023-01-20T14:53:30.291Z,11.73
2023-01-20T14:56:14.667Z,12.33
2023-01-20T14:58:49.393Z,12.16
2023-01-20T15:01:25.689Z,11.47
2023-01-20T15:03:58.734Z,11.33
2023-01-20T15:06:26.612Z,11.47
2023-01-20T15:09:06.045Z,12.10
2023-01-20T15:11:35.634Z,13.10
2023-01-20T15:14:08.589Z,11.30
2023-01-20T15:16:36.147Z,11.57
2023-01-20T15:19:19.850Z,10.50
2023-01-20T15:21:52.553Z,10.80
2023-01-20T15:24:32.687Z,11.13
2023-01-20T15:27:02.173Z,12.30
2023-01-20T15:29:33.844Z,12.50
2023-01-20T15:32:12.295Z,12.67
2023-01-20T15:34:42.590Z,13.53
2023-01-20T15:37:18.521Z,12.23
2023-01-20T15:39:47.447Z,12.07
2023-01-20T15:42:18.994Z,13.67
2023-01-20T15:44:46.686Z,13.07
2023-01-20T15:47:21.136Z,14.40
2023-01-20T15:49:48.736Z,14.37
2023-01-20T15:52:19.291Z,11.13
2023-01-20T15:54:46.894Z,10.70
2023-01-20T15:57:23.813Z,6.90
2023-01-20T15:59:54.545Z,6.70
2023-01-20T16:02:23.561Z,7.57
2023-01-20T16:04:51.219Z,7.33
2023-01-20T16:07:20.646Z,9.40
2023-01-20T16:09:48.520Z,10.37
2023-01-20T16:12:17.915Z,8.50
2023-01-20T16:14:45.913Z,9.63
2023-01-20T16:17:15.534Z,9.00
2023-01-20T16:19:43.467Z,9.80
2023-01-20T16:22:11.086Z,10.60
2023-01-20T16:24:39.024Z,9.03
2023-01-20T16:27:21.482Z,6.20
2023-01-20T16:29:49.723Z,6.70
2023-01-20T16:32:21.830Z,5.40
2023-01-20T16:34:49.976Z,5.53
2023-01-20T16:37:17.592Z,4.20
2023-01-20T16:39:45.223Z,5.33
2023-01-20T16:42:14.272Z,5.50
2023-01-20T16:44:41.991Z,6.97
2023-01-20T16:47:09.782Z,5.20
2023-01-20T16:49:38.589Z,5.03
2023-01-20T16:52:06.299Z,5.20
2023-01-20T16:54:33.910Z,4.90
2023-01-20T16:57:01.657Z,4.97
2023-01-20T16:59:29.339Z,5.20
2023-01-20T17:01:57.167Z,5.60
2023-01-20T17:04:24.836Z,5.73
2023-01-20T17:06:52.827Z,9.17
2023-01-20T17:09:20.509Z,7.10
2023-01-20T17:11:48.071Z,6.50
2023-01-20T17:14:15.756Z,7.10
2023-01-20T17:16:43.461Z,7.10
2023-01-20T17:19:13.053Z,6.87
2023-01-20T17:21:40.798Z,6.63
2023-01-20T17:24:12.972Z,6.90
2023-01-20T17:26:40.607Z,7.27
2023-01-20T17:29:08.641Z,7.07
2023-01-20T17:31:36.967Z,8.20
2023-01-20T17:34:05.983Z,8.00
2023-01-20T17:36:34.560Z,8.80
2023-01-20T17:39:03.608Z,7.07
2023-01-20T17:41:31.973Z,6.90
2023-01-20T17:44:03.990Z,7.47
2023-01-20T17:46:31.902Z,13.53
2023-01-20T17:49:00.463Z,7.40
2023-01-20T17:51:29.545Z,7.67
2023-01-20T17:53:58.079Z,8.77
2023-01-20T17:56:26.751Z,8.50
2023-01-20T17:58:54.468Z,9.77
2023-01-20T18:01:27.060Z,9.37
2023-01-20T18:03:56.611Z,9.93
2023-01-20T18:06:25.729Z,9.57
2023-01-20T18:08:58.418Z,11.27
2023-01-20T18:11:27.647Z,8.77
2023-01-20T18:13:57.384Z,8.30
2023-01-20T18:16:29.016Z,8.70
2023-01-20T18:18:59.127Z,10.07
2023-01-20T18:21:32.661Z,11.30
2023-01-20T18:24:00.959Z,11.93
2023-01-20T18:26:30.703Z,12.40
2023-01-20T18:29:00.976Z,13.20
2023-01-20T18:31:32.864Z,13.60
2023-01-20T18:34:06.461Z,14.33
2023-01-20T18:36:36.885Z,13.77
2023-01-20T18:39:07.649Z,13.30
2023-01-20T18:41:37.812Z,13.80
2023-01-20T18:44:06.173Z,12.47
2023-01-20T18:46:34.233Z,12.97
2023-01-20T18:49:02.091Z,13.20
2023-01-20T18:51:31.307Z,13.07
2023-01-20T18:54:01.321Z,13.80
2023-01-20T18:56:29.905Z,12.50
2023-01-20T18:58:57.501Z,13.97
2023-01-20T19:01:28.951Z,13.17
2023-01-20T19:03:57.259Z,12.27
2023-01-20T19:06:27.414Z,13.30
2023-01-20T19:08:59.514Z,13.40
2023-01-20T19:11:30.473Z,13.83
2023-01-20T19:13:59.282Z,13.83
2023-01-20T19:16:32.757Z,14.70
2023-01-20T19:19:03.497Z,13.53
2023-01-20T19:21:32.492Z,13.20
2023-01-20T19:24:05.664Z,12.07
2023-01-20T19:26:38.924Z,11.37
2023-01-20T19:29:10.374Z,12.23
2023-01-20T19:31:39.483Z,13.67
2023-01-20T19:34:08.999Z,12.67
2023-01-20T19:36:37.079Z,13.57
2023-01-20T19:39:05.626Z,13.37
2023-01-20T19:41:34.366Z,14.20
2023-01-20T19:44:06.859Z,14.87
2023-01-20T19:46:37.001Z,14.10
2023-01-20T19:49:04.866Z,13.47
2023-01-20T19:51:32.915Z,14.17
2023-01-20T19:54:01.438Z,12.77
2023-01-20T19:56:32.251Z,13.50
2023-01-20T19:59:00.909Z,16.43
2023-01-20T20:01:31.995Z,13.90
2023-01-20T20:04:04.305Z,12.53
2023-01-20T20:06:33.199Z,12.60
2023-01-20T20:09:03.821Z,11.90
2023-01-20T20:11:32.790Z,12.17
2023-01-20T20:14:03.852Z,11.13
2023-01-20T20:16:33.887Z,11.27
2023-01-20T20:19:01.931Z,11.90
2023-01-20T20:21:29.573Z,11.27
2023-01-20T20:23:59.154Z,11.57
2023-01-20T20:26:30.362Z,11.40
2023-01-20T20:29:02.371Z,11.93
2023-01-20T20:31:30.394Z,11.13
2023-01-20T20:33:59.237Z,11.43
2023-01-20T20:36:32.836Z,10.77
2023-01-20T20:39:03.290Z,11.70
2023-01-20T20:41:31.753Z,11.07
2023-01-20T20:44:00.994Z,11.60
2023-01-20T20:46:29.673Z,11.27
2023-01-20T20:48:59.371Z,11.07
2023-01-20T20:51:29.067Z,12.30
2023-01-20T20:53:58.197Z,10.80
2023-01-20T20:56:34.428Z,11.43
2023-01-20T20:59:03.481Z,12.87
2023-01-20T21:01:33.941Z,11.87
2023-01-20T21:04:03.235Z,12.80
2023-01-20T21:06:31.861Z,11.83
2023-01-20T21:09:00.207Z,11.20
2023-01-20T21:11:28.624Z,12.40
2023-01-20T21:13:59.252Z,12.40
2023-01-20T21:16:27.648Z,12.90
2023-01-20T21:18:56.565Z,11.83
2023-01-20T21:21:25.271Z,13.23
2023-01-20T21:23:55.224Z,12.63
2023-01-20T21:26:24.435Z,13.00
2023-01-20T21:28:53.078Z,11.30
2023-01-20T21:31:23.475Z,11.30
2023-01-20T21:33:53.874Z,10.13
2023-01-20T21:36:22.160Z,10.80
2023-01-20T21:38:50.311Z,11.13
2023-01-20T21:41:18.949Z,11.53
2023-01-20T21:44:07.573Z,11.67
2023-01-20T21:46:40.134Z,12.60
2023-01-20T21:49:27.364Z,13.30
2023-01-20T21:52:14.640Z,14.33
2023-01-20T21:54:44.734Z,15.37
2023-01-20T21:57:13.136Z,15.10
2023-01-20T21:59:40.722Z,15.73
2023-01-20T22:02:10.598Z,16.63
2023-01-20T22:04:39.888Z,15.50
2023-01-20T22:07:07.786Z,17.27
2023-01-20T22:09:35.376Z,17.10
2023-01-20T22:12:03.709Z,16.83
2023-01-20T22:14:32.617Z,17.23
2023-01-20T22:17:00.551Z,17.03
2023-01-20T22:19:31.256Z,16.10
2023-01-20T22:22:00.492Z,15.73
2023-01-20T22:24:28.618Z,16.90
2023-01-20T22:26:56.834Z,17.30
2023-01-20T22:29:24.613Z,16.47
2023-01-20T22:31:54.032Z,15.07
2023-01-20T22:34:22.476Z,15.57
2023-01-20T22:36:50.601Z,15.27
2023-01-20T22:39:18.340Z,16.13
2023-01-20T22:41:45.968Z,14.33
2023-01-20T22:44:13.719Z,14.37
2023-01-20T22:46:41.300Z,14.07
2023-01-20T22:49:09.754Z,14.70
2023-01-20T22:51:37.468Z,13.60
2023-01-20T22:54:07.490Z,14.10
2023-01-20T22:56:35.140Z,15.40
2023-01-20T22:59:02.771Z,15.47
2023-01-20T23:01:33.219Z,14.37
2023-01-20T23:04:03.643Z,14.53
2023-01-20T23:06:33.696Z,14.27
2023-01-20T23:09:04.158Z,13.70
2023-01-20T23:11:32.514Z,14.03
2023-01-20T23:14:00.222Z,15.10
2023-01-20T23:16:27.958Z,14.47
2023-01-20T23:18:55.774Z,14.50
2023-01-20T23:21:24.323Z,14.00
2023-01-20T23:23:54.812Z,13.73
2023-01-20T23:26:25.262Z,13.77
2023-01-20T23:28:53.854Z,13.63
2023-01-20T23:31:23.616Z,13.33
2023-01-20T23:33:53.083Z,13.10
2023-01-20T23:36:25.760Z,13.33
2023-01-20T23:38:54.889Z,14.33
2023-01-20T23:41:23.506Z,14.17
2023-01-20T23:43:51.230Z,13.53
2023-01-20T23:46:20.541Z,14.47
2023-01-20T23:48:49.368Z,13.63
2023-01-20T23:51:17.351Z,13.17
2023-01-20T23:53:44.975Z,13.37
2023-01-20T23:56:15.963Z,13.10
2023-01-20T23:58:44.263Z,14.07
